sensor_id;sensor_type;location;lat;lon;timestamp;temperature;humidity
5278;DHT22;2662;51.194;6.614;2023-07-13T00:01:40;17.80;99.90
5278;DHT22;2662;51.194;6.614;2023-07-13T00:04:08;17.70;99.90
5278;DHT22;2662;51.194;6.614;2023-07-13T00:06:35;17.70;99.90
5278;DHT22;2662;51.194;6.614;2023-07-13T00:09:01;17.70;99.90
5278;DHT22;2662;51.194;6.614;2023-07-13T00:11:28;17.60;99.90
5278;DHT22;2662;51.194;6.614;2023-07-13T00:13:56;17.60;99.90
5278;DHT22;2662;51.194;6.614;2023-07-13T00:16:22;17.60;99.90
5278;DHT22;2662;51.194;6.614;2023-07-13T00:18:49;17.60;99.90
5278;DHT22;2662;51.194;6.614;2023-07-13T00:21:16;17.60;99.90
5278;DHT22;2662;51.194;6.614;2023-07-13T00:23:42;17.60;99.90
5278;DHT22;2662;51.194;6.614;2023-07-13T00:26:10;17.50;99.90
5278;DHT22;2662;51.194;6.614;2023-07-13T00:28:38;17.50;99.90
5278;DHT22;2662;51.194;6.614;2023-07-13T00:31:08;17.40;99.90
5278;DHT22;2662;51.194;6.614;2023-07-13T00:33:35;17.40;99.90
5278;DHT22;2662;51.194;6.614;2023-07-13T00:36:03;17.40;99.90
5278;DHT22;2662;51.194;6.614;2023-07-13T00:38:30;17.40;99.90
5278;DHT22;2662;51.194;6.614;2023-07-13T00:40:57;17.40;99.90
5278;DHT22;2662;51.194;6.614;2023-07-13T00:43:27;17.40;99.90
5278;DHT22;2662;51.194;6.614;2023-07-13T00:46:21;17.30;99.90
5278;DHT22;2662;51.194;6.614;2023-07-13T00:48:49;17.30;99.90
5278;DHT22;2662;51.194;6.614;2023-07-13T00:51:20;17.30;99.90
5278;DHT22;2662;51.194;6.614;2023-07-13T00:53:48;17.20;99.90
5278;DHT22;2662;51.194;6.614;2023-07-13T00:56:16;17.10;99.90
5278;DHT22;2662;51.194;6.614;2023-07-13T00:58:42;17.10;99.90
5278;DHT22;2662;51.194;6.614;2023-07-13T01:01:09;17.10;99.90
5278;DHT22;2662;51.194;6.614;2023-07-13T01:03:39;17.00;99.90
5278;DHT22;2662;51.194;6.614;2023-07-13T01:06:07;17.00;99.90
5278;DHT22;2662;51.194;6.614;2023-07-13T01:08:34;17.00;99.90
5278;DHT22;2662;51.194;6.614;2023-07-13T01:11:00;16.90;99.90
5278;DHT22;2662;51.194;6.614;2023-07-13T01:13:27;16.90;99.90
5278;DHT22;2662;51.194;6.614;2023-07-13T01:15:58;16.90;99.90
5278;DHT22;2662;51.194;6.614;2023-07-13T01:18:26;16.90;99.90
5278;DHT22;2662;51.194;6.614;2023-07-13T01:20:56;16.80;99.90
5278;DHT22;2662;51.194;6.614;2023-07-13T01:23:25;16.80;99.90
5278;DHT22;2662;51.194;6.614;2023-07-13T01:25:52;16.80;99.90
5278;DHT22;2662;51.194;6.614;2023-07-13T01:28:19;16.70;99.90
5278;DHT22;2662;51.194;6.614;2023-07-13T01:30:46;16.70;99.90
5278;DHT22;2662;51.194;6.614;2023-07-13T01:33:15;16.70;99.90
5278;DHT22;2662;51.194;6.614;2023-07-13T01:35:42;16.70;99.90
5278;DHT22;2662;51.194;6.614;2023-07-13T01:38:16;16.60;99.90
5278;DHT22;2662;51.194;6.614;2023-07-13T01:40:43;16.60;99.90
5278;DHT22;2662;51.194;6.614;2023-07-13T01:43:10;16.60;99.90
5278;DHT22;2662;51.194;6.614;2023-07-13T01:45:37;16.60;99.90
5278;DHT22;2662;51.194;6.614;2023-07-13T01:48:04;16.60;99.90
5278;DHT22;2662;51.194;6.614;2023-07-13T01:50:32;16.60;99.90
5278;DHT22;2662;51.194;6.614;2023-07-13T01:52:58;16.60;99.90
5278;DHT22;2662;51.194;6.614;2023-07-13T01:55:28;16.60;99.90
5278;DHT22;2662;51.194;6.614;2023-07-13T01:57:54;16.60;99.90
5278;DHT22;2662;51.194;6.614;2023-07-13T02:00:21;16.50;99.90
5278;DHT22;2662;51.194;6.614;2023-07-13T02:02:48;16.50;99.90
5278;DHT22;2662;51.194;6.614;2023-07-13T02:05:15;16.50;99.90
5278;DHT22;2662;51.194;6.614;2023-07-13T02:07:42;16.50;99.90
5278;DHT22;2662;51.194;6.614;2023-07-13T02:10:10;16.50;99.90
5278;DHT22;2662;51.194;6.614;2023-07-13T02:12:39;16.50;99.90
5278;DHT22;2662;51.194;6.614;2023-07-13T02:15:06;16.40;99.90
5278;DHT22;2662;51.194;6.614;2023-07-13T02:17:33;16.40;99.90
5278;DHT22;2662;51.194;6.614;2023-07-13T02:20:00;16.40;99.90
5278;DHT22;2662;51.194;6.614;2023-07-13T02:22:28;16.50;99.90
5278;DHT22;2662;51.194;6.614;2023-07-13T02:24:54;16.40;99.90
5278;DHT22;2662;51.194;6.614;2023-07-13T02:27:21;16.40;99.90
5278;DHT22;2662;51.194;6.614;2023-07-13T02:29:49;16.40;99.90
5278;DHT22;2662;51.194;6.614;2023-07-13T02:32:17;16.30;99.90
5278;DHT22;2662;51.194;6.614;2023-07-13T02:34:44;16.30;99.90
5278;DHT22;2662;51.194;6.614;2023-07-13T02:37:10;16.30;99.90
5278;DHT22;2662;51.194;6.614;2023-07-13T02:39:37;16.30;99.90
5278;DHT22;2662;51.194;6.614;2023-07-13T02:42:05;16.20;99.90
5278;DHT22;2662;51.194;6.614;2023-07-13T02:44:32;16.20;99.90
5278;DHT22;2662;51.194;6.614;2023-07-13T02:47:00;16.20;99.90
5278;DHT22;2662;51.194;6.614;2023-07-13T02:49:26;16.20;99.90
5278;DHT22;2662;51.194;6.614;2023-07-13T02:51:53;16.20;99.90
5278;DHT22;2662;51.194;6.614;2023-07-13T02:54:20;16.20;99.90
5278;DHT22;2662;51.194;6.614;2023-07-13T02:56:46;16.20;99.90
5278;DHT22;2662;51.194;6.614;2023-07-13T02:59:13;16.20;99.90
5278;DHT22;2662;51.194;6.614;2023-07-13T03:01:40;16.20;99.90
5278;DHT22;2662;51.194;6.614;2023-07-13T03:04:08;16.20;99.90
5278;DHT22;2662;51.194;6.614;2023-07-13T03:06:35;16.20;99.90
5278;DHT22;2662;51.194;6.614;2023-07-13T03:09:02;16.20;99.90
5278;DHT22;2662;51.194;6.614;2023-07-13T03:11:29;16.20;99.90
5278;DHT22;2662;51.194;6.614;2023-07-13T03:13:57;16.20;99.90
5278;DHT22;2662;51.194;6.614;2023-07-13T03:16:23;16.20;99.90
5278;DHT22;2662;51.194;6.614;2023-07-13T03:18:50;16.20;99.90
5278;DHT22;2662;51.194;6.614;2023-07-13T03:21:18;16.10;99.90
5278;DHT22;2662;51.194;6.614;2023-07-13T03:23:45;16.10;99.90
5278;DHT22;2662;51.194;6.614;2023-07-13T03:26:15;16.10;99.90
5278;DHT22;2662;51.194;6.614;2023-07-13T03:28:42;16.10;99.90
5278;DHT22;2662;51.194;6.614;2023-07-13T03:31:11;16.10;99.90
5278;DHT22;2662;51.194;6.614;2023-07-13T03:33:38;16.10;99.90
5278;DHT22;2662;51.194;6.614;2023-07-13T03:36:06;16.10;99.90
5278;DHT22;2662;51.194;6.614;2023-07-13T03:38:35;16.10;99.90
5278;DHT22;2662;51.194;6.614;2023-07-13T03:41:01;16.10;99.90
5278;DHT22;2662;51.194;6.614;2023-07-13T03:43:28;16.10;99.90
5278;DHT22;2662;51.194;6.614;2023-07-13T03:45:55;16.10;99.90
5278;DHT22;2662;51.194;6.614;2023-07-13T03:48:22;16.10;99.90
5278;DHT22;2662;51.194;6.614;2023-07-13T03:50:49;16.10;99.90
5278;DHT22;2662;51.194;6.614;2023-07-13T03:53:15;16.20;99.90
5278;DHT22;2662;51.194;6.614;2023-07-13T03:55:45;16.20;99.90
5278;DHT22;2662;51.194;6.614;2023-07-13T03:58:27;16.20;99.90
5278;DHT22;2662;51.194;6.614;2023-07-13T04:00:55;16.20;99.90
5278;DHT22;2662;51.194;6.614;2023-07-13T04:03:23;16.20;99.90
5278;DHT22;2662;51.194;6.614;2023-07-13T04:05:50;16.20;99.90
5278;DHT22;2662;51.194;6.614;2023-07-13T04:08:16;16.30;99.90
5278;DHT22;2662;51.194;6.614;2023-07-13T04:10:44;16.30;99.90
5278;DHT22;2662;51.194;6.614;2023-07-13T04:13:11;16.30;99.90
5278;DHT22;2662;51.194;6.614;2023-07-13T04:15:39;16.40;99.90
5278;DHT22;2662;51.194;6.614;2023-07-13T04:18:06;16.40;99.90
5278;DHT22;2662;51.194;6.614;2023-07-13T04:20:32;16.40;99.90
5278;DHT22;2662;51.194;6.614;2023-07-13T04:22:59;16.50;99.90
5278;DHT22;2662;51.194;6.614;2023-07-13T04:25:26;16.50;99.90
5278;DHT22;2662;51.194;6.614;2023-07-13T04:27:54;16.50;99.90
5278;DHT22;2662;51.194;6.614;2023-07-13T04:30:21;16.60;99.90
5278;DHT22;2662;51.194;6.614;2023-07-13T04:32:50;16.60;99.90
5278;DHT22;2662;51.194;6.614;2023-07-13T04:35:17;16.70;99.90
5278;DHT22;2662;51.194;6.614;2023-07-13T04:37:46;16.80;99.90
5278;DHT22;2662;51.194;6.614;2023-07-13T04:40:12;16.80;99.90
5278;DHT22;2662;51.194;6.614;2023-07-13T04:42:39;16.90;99.90
5278;DHT22;2662;51.194;6.614;2023-07-13T04:45:08;17.00;99.90
5278;DHT22;2662;51.194;6.614;2023-07-13T04:47:35;17.10;99.90
5278;DHT22;2662;51.194;6.614;2023-07-13T04:50:01;17.20;99.90
5278;DHT22;2662;51.194;6.614;2023-07-13T04:52:28;17.20;99.90
5278;DHT22;2662;51.194;6.614;2023-07-13T04:54:55;17.30;99.90
5278;DHT22;2662;51.194;6.614;2023-07-13T04:57:22;17.30;99.90
5278;DHT22;2662;51.194;6.614;2023-07-13T04:59:49;17.40;99.90
5278;DHT22;2662;51.194;6.614;2023-07-13T05:02:17;17.50;99.90
5278;DHT22;2662;51.194;6.614;2023-07-13T05:04:46;17.60;99.90
5278;DHT22;2662;51.194;6.614;2023-07-13T05:07:13;17.60;99.90
5278;DHT22;2662;51.194;6.614;2023-07-13T05:09:39;17.60;99.90
5278;DHT22;2662;51.194;6.614;2023-07-13T05:12:08;17.70;99.90
5278;DHT22;2662;51.194;6.614;2023-07-13T05:14:35;17.70;99.90
5278;DHT22;2662;51.194;6.614;2023-07-13T05:17:02;17.80;99.90
5278;DHT22;2662;51.194;6.614;2023-07-13T05:19:30;18.00;99.90
5278;DHT22;2662;51.194;6.614;2023-07-13T05:21:57;18.20;99.90
5278;DHT22;2662;51.194;6.614;2023-07-13T05:24:23;18.30;99.90
5278;DHT22;2662;51.194;6.614;2023-07-13T05:26:50;18.50;99.90
5278;DHT22;2662;51.194;6.614;2023-07-13T05:29:17;18.60;99.90
5278;DHT22;2662;51.194;6.614;2023-07-13T05:31:44;18.80;99.90
5278;DHT22;2662;51.194;6.614;2023-07-13T05:34:10;19.00;99.90
5278;DHT22;2662;51.194;6.614;2023-07-13T05:36:40;19.10;99.90
5278;DHT22;2662;51.194;6.614;2023-07-13T05:39:06;19.30;99.90
5278;DHT22;2662;51.194;6.614;2023-07-13T05:41:33;20.10;99.90
5278;DHT22;2662;51.194;6.614;2023-07-13T05:44:00;20.90;99.90
5278;DHT22;2662;51.194;6.614;2023-07-13T05:46:27;21.50;99.90
5278;DHT22;2662;51.194;6.614;2023-07-13T05:48:53;22.50;99.90
5278;DHT22;2662;51.194;6.614;2023-07-13T05:51:20;23.50;99.90
5278;DHT22;2662;51.194;6.614;2023-07-13T05:53:48;24.20;99.90
5278;DHT22;2662;51.194;6.614;2023-07-13T05:56:15;24.50;99.90
5278;DHT22;2662;51.194;6.614;2023-07-13T05:58:42;24.30;99.90
5278;DHT22;2662;51.194;6.614;2023-07-13T06:01:12;24.50;99.90
5278;DHT22;2662;51.194;6.614;2023-07-13T06:03:39;24.50;99.90
5278;DHT22;2662;51.194;6.614;2023-07-13T06:06:06;25.30;99.90
5278;DHT22;2662;51.194;6.614;2023-07-13T06:08:34;26.90;99.90
5278;DHT22;2662;51.194;6.614;2023-07-13T06:11:07;27.90;99.90
5278;DHT22;2662;51.194;6.614;2023-07-13T06:13:34;28.30;99.90
5278;DHT22;2662;51.194;6.614;2023-07-13T06:16:01;28.30;99.90
5278;DHT22;2662;51.194;6.614;2023-07-13T06:18:29;28.00;99.90
5278;DHT22;2662;51.194;6.614;2023-07-13T06:20:56;27.80;99.90
5278;DHT22;2662;51.194;6.614;2023-07-13T06:23:23;28.00;99.90
5278;DHT22;2662;51.194;6.614;2023-07-13T06:25:50;28.80;99.90
5278;DHT22;2662;51.194;6.614;2023-07-13T06:28:18;29.10;99.90
5278;DHT22;2662;51.194;6.614;2023-07-13T06:30:45;29.30;99.00
5278;DHT22;2662;51.194;6.614;2023-07-13T06:33:11;28.60;99.20
5278;DHT22;2662;51.194;6.614;2023-07-13T06:35:38;27.10;99.90
5278;DHT22;2662;51.194;6.614;2023-07-13T06:38:05;26.20;99.90
5278;DHT22;2662;51.194;6.614;2023-07-13T06:40:31;25.30;99.90
5278;DHT22;2662;51.194;6.614;2023-07-13T06:42:58;24.60;99.90
5278;DHT22;2662;51.194;6.614;2023-07-13T06:45:26;24.10;99.90
5278;DHT22;2662;51.194;6.614;2023-07-13T06:47:53;23.50;99.90
5278;DHT22;2662;51.194;6.614;2023-07-13T06:50:20;23.00;99.90
5278;DHT22;2662;51.194;6.614;2023-07-13T06:52:47;22.70;99.90
5278;DHT22;2662;51.194;6.614;2023-07-13T06:55:14;22.20;99.90
5278;DHT22;2662;51.194;6.614;2023-07-13T06:57:41;21.90;99.90
5278;DHT22;2662;51.194;6.614;2023-07-13T07:00:08;21.70;99.90
5278;DHT22;2662;51.194;6.614;2023-07-13T07:02:36;21.50;99.90
5278;DHT22;2662;51.194;6.614;2023-07-13T07:05:04;21.60;99.90
5278;DHT22;2662;51.194;6.614;2023-07-13T07:07:30;21.60;99.90
5278;DHT22;2662;51.194;6.614;2023-07-13T07:09:57;21.50;99.90
5278;DHT22;2662;51.194;6.614;2023-07-13T07:12:24;21.50;99.90
5278;DHT22;2662;51.194;6.614;2023-07-13T07:14:50;21.50;99.90
5278;DHT22;2662;51.194;6.614;2023-07-13T07:17:17;21.70;99.90
5278;DHT22;2662;51.194;6.614;2023-07-13T07:19:46;22.40;99.90
5278;DHT22;2662;51.194;6.614;2023-07-13T07:22:12;23.20;99.90
5278;DHT22;2662;51.194;6.614;2023-07-13T07:24:39;23.60;99.90
5278;DHT22;2662;51.194;6.614;2023-07-13T07:27:06;24.00;99.90
5278;DHT22;2662;51.194;6.614;2023-07-13T07:29:33;23.70;99.90
5278;DHT22;2662;51.194;6.614;2023-07-13T07:31:59;23.50;99.90
5278;DHT22;2662;51.194;6.614;2023-07-13T07:34:26;23.40;99.90
5278;DHT22;2662;51.194;6.614;2023-07-13T07:36:56;23.90;99.90
5278;DHT22;2662;51.194;6.614;2023-07-13T07:39:23;24.20;99.90
5278;DHT22;2662;51.194;6.614;2023-07-13T07:41:50;24.30;99.90
5278;DHT22;2662;51.194;6.614;2023-07-13T07:44:17;24.40;99.90
5278;DHT22;2662;51.194;6.614;2023-07-13T07:46:43;25.30;99.90
5278;DHT22;2662;51.194;6.614;2023-07-13T07:49:10;25.70;99.90
5278;DHT22;2662;51.194;6.614;2023-07-13T07:51:37;25.50;99.90
5278;DHT22;2662;51.194;6.614;2023-07-13T07:54:06;25.50;99.90
5278;DHT22;2662;51.194;6.614;2023-07-13T07:56:33;25.30;99.90
5278;DHT22;2662;51.194;6.614;2023-07-13T07:58:59;25.10;99.90
5278;DHT22;2662;51.194;6.614;2023-07-13T08:01:26;24.80;99.90
5278;DHT22;2662;51.194;6.614;2023-07-13T08:03:53;24.80;99.90
5278;DHT22;2662;51.194;6.614;2023-07-13T08:06:19;24.90;99.90
5278;DHT22;2662;51.194;6.614;2023-07-13T08:08:47;24.70;99.90
5278;DHT22;2662;51.194;6.614;2023-07-13T08:11:16;24.50;99.90
5278;DHT22;2662;51.194;6.614;2023-07-13T08:13:43;24.40;99.90
5278;DHT22;2662;51.194;6.614;2023-07-13T08:16:10;24.20;99.90
5278;DHT22;2662;51.194;6.614;2023-07-13T08:18:37;24.30;99.90
5278;DHT22;2662;51.194;6.614;2023-07-13T08:21:05;24.00;99.90
5278;DHT22;2662;51.194;6.614;2023-07-13T08:23:32;24.20;99.90
5278;DHT22;2662;51.194;6.614;2023-07-13T08:25:58;24.60;99.90
5278;DHT22;2662;51.194;6.614;2023-07-13T08:28:28;24.80;99.90
5278;DHT22;2662;51.194;6.614;2023-07-13T08:30:55;24.60;99.90
5278;DHT22;2662;51.194;6.614;2023-07-13T08:33:22;24.30;99.90
5278;DHT22;2662;51.194;6.614;2023-07-13T08:35:50;24.30;99.90
5278;DHT22;2662;51.194;6.614;2023-07-13T08:38:18;24.60;99.90
5278;DHT22;2662;51.194;6.614;2023-07-13T08:40:50;25.10;99.90
5278;DHT22;2662;51.194;6.614;2023-07-13T08:43:20;25.10;99.90
5278;DHT22;2662;51.194;6.614;2023-07-13T08:45:53;25.10;99.90
5278;DHT22;2662;51.194;6.614;2023-07-13T08:48:24;25.40;99.90
5278;DHT22;2662;51.194;6.614;2023-07-13T08:50:56;25.40;99.90
5278;DHT22;2662;51.194;6.614;2023-07-13T08:53:29;25.30;99.90
5278;DHT22;2662;51.194;6.614;2023-07-13T08:55:58;25.40;99.90
5278;DHT22;2662;51.194;6.614;2023-07-13T08:58:27;25.50;99.90
5278;DHT22;2662;51.194;6.614;2023-07-13T09:00:59;25.50;99.90
5278;DHT22;2662;51.194;6.614;2023-07-13T09:03:36;25.70;99.90
5278;DHT22;2662;51.194;6.614;2023-07-13T09:06:04;25.40;99.90
5278;DHT22;2662;51.194;6.614;2023-07-13T09:08:44;25.20;99.90
5278;DHT22;2662;51.194;6.614;2023-07-13T09:11:25;25.20;99.90
5278;DHT22;2662;51.194;6.614;2023-07-13T09:13:58;25.70;99.90
5278;DHT22;2662;51.194;6.614;2023-07-13T09:16:28;26.30;99.90
5278;DHT22;2662;51.194;6.614;2023-07-13T09:19:00;26.90;99.90
5278;DHT22;2662;51.194;6.614;2023-07-13T09:21:31;26.90;99.90
5278;DHT22;2662;51.194;6.614;2023-07-13T09:24:01;26.60;99.90
5278;DHT22;2662;51.194;6.614;2023-07-13T09:26:31;26.50;99.90
5278;DHT22;2662;51.194;6.614;2023-07-13T09:29:09;26.60;99.90
5278;DHT22;2662;51.194;6.614;2023-07-13T09:31:42;26.30;99.90
5278;DHT22;2662;51.194;6.614;2023-07-13T09:34:10;26.20;99.90
5278;DHT22;2662;51.194;6.614;2023-07-13T09:36:37;26.70;99.90
5278;DHT22;2662;51.194;6.614;2023-07-13T09:39:10;27.10;99.90
5278;DHT22;2662;51.194;6.614;2023-07-13T09:41:43;26.80;99.90
5278;DHT22;2662;51.194;6.614;2023-07-13T09:44:15;26.70;99.90
5278;DHT22;2662;51.194;6.614;2023-07-13T09:46:46;26.70;99.90
5278;DHT22;2662;51.194;6.614;2023-07-13T09:49:13;26.50;99.90
5278;DHT22;2662;51.194;6.614;2023-07-13T09:51:41;26.10;99.90
5278;DHT22;2662;51.194;6.614;2023-07-13T09:54:18;25.70;99.90
5278;DHT22;2662;51.194;6.614;2023-07-13T09:56:45;25.70;99.90
5278;DHT22;2662;51.194;6.614;2023-07-13T09:59:19;26.30;99.90
5278;DHT22;2662;51.194;6.614;2023-07-13T10:01:47;26.90;99.90
5278;DHT22;2662;51.194;6.614;2023-07-13T10:04:18;27.50;99.90
5278;DHT22;2662;51.194;6.614;2023-07-13T10:06:46;28.80;99.90
5278;DHT22;2662;51.194;6.614;2023-07-13T10:09:16;29.50;99.90
5278;DHT22;2662;51.194;6.614;2023-07-13T10:11:44;29.80;99.60
5278;DHT22;2662;51.194;6.614;2023-07-13T10:14:14;29.90;98.20
5278;DHT22;2662;51.194;6.614;2023-07-13T10:16:43;29.80;98.00
5278;DHT22;2662;51.194;6.614;2023-07-13T10:19:14;29.70;97.90
5278;DHT22;2662;51.194;6.614;2023-07-13T10:21:46;29.50;97.90
5278;DHT22;2662;51.194;6.614;2023-07-13T10:24:17;29.10;97.80
5278;DHT22;2662;51.194;6.614;2023-07-13T10:26:48;28.80;98.10
5278;DHT22;2662;51.194;6.614;2023-07-13T10:29:17;28.30;98.40
5278;DHT22;2662;51.194;6.614;2023-07-13T10:31:45;27.70;99.30
5278;DHT22;2662;51.194;6.614;2023-07-13T10:34:13;27.50;99.20
5278;DHT22;2662;51.194;6.614;2023-07-13T10:36:42;27.50;99.20
5278;DHT22;2662;51.194;6.614;2023-07-13T10:39:15;27.20;99.60
5278;DHT22;2662;51.194;6.614;2023-07-13T10:41:44;27.40;99.90
5278;DHT22;2662;51.194;6.614;2023-07-13T10:44:20;27.90;99.10
5278;DHT22;2662;51.194;6.614;2023-07-13T10:46:52;28.00;99.20
5278;DHT22;2662;51.194;6.614;2023-07-13T10:49:21;28.10;99.10
5278;DHT22;2662;51.194;6.614;2023-07-13T10:51:48;28.20;99.50
5278;DHT22;2662;51.194;6.614;2023-07-13T10:54:19;27.80;98.80
5278;DHT22;2662;51.194;6.614;2023-07-13T10:56:50;27.70;99.80
5278;DHT22;2662;51.194;6.614;2023-07-13T10:59:20;27.30;99.70
5278;DHT22;2662;51.194;6.614;2023-07-13T11:01:55;27.20;99.60
5278;DHT22;2662;51.194;6.614;2023-07-13T11:04:26;27.90;99.90
5278;DHT22;2662;51.194;6.614;2023-07-13T11:06:58;28.00;99.20
5278;DHT22;2662;51.194;6.614;2023-07-13T11:09:36;28.00;98.70
5278;DHT22;2662;51.194;6.614;2023-07-13T11:12:09;27.70;98.10
5278;DHT22;2662;51.194;6.614;2023-07-13T11:14:43;27.30;
5278;DHT22;2662;51.194;6.614;2023-07-13T11:17:35;27.00;98.90
5278;DHT22;2662;51.194;6.614;2023-07-13T11:20:21;26.70;99.70
5278;DHT22;2662;51.194;6.614;2023-07-13T11:22:51;26.70;99.90
5278;DHT22;2662;51.194;6.614;2023-07-13T11:25:26;26.90;99.90
5278;DHT22;2662;51.194;6.614;2023-07-13T11:28:06;26.80;99.40
5278;DHT22;2662;51.194;6.614;2023-07-13T11:30:36;26.60;99.90
5278;DHT22;2662;51.194;6.614;2023-07-13T11:33:13;26.40;99.90
5278;DHT22;2662;51.194;6.614;2023-07-13T11:35:51;26.40;99.90
5278;DHT22;2662;51.194;6.614;2023-07-13T11:38:20;26.40;99.90
5278;DHT22;2662;51.194;6.614;2023-07-13T11:40:50;26.50;98.70
5278;DHT22;2662;51.194;6.614;2023-07-13T11:43:17;26.50;99.60
5278;DHT22;2662;51.194;6.614;2023-07-13T11:45:44;26.60;99.80
5278;DHT22;2662;51.194;6.614;2023-07-13T11:48:22;26.70;99.90
5278;DHT22;2662;51.194;6.614;2023-07-13T11:50:54;26.80;99.60
5278;DHT22;2662;51.194;6.614;2023-07-13T11:53:22;26.90;99.20
5278;DHT22;2662;51.194;6.614;2023-07-13T11:55:50;27.00;98.90
5278;DHT22;2662;51.194;6.614;2023-07-13T11:58:21;27.30;98.20
5278;DHT22;2662;51.194;6.614;2023-07-13T12:00:49;27.40;97.10
5278;DHT22;2662;51.194;6.614;2023-07-13T12:03:21;27.50;97.10
5278;DHT22;2662;51.194;6.614;2023-07-13T12:06:02;27.60;96.80
5278;DHT22;2662;51.194;6.614;2023-07-13T12:08:31;27.30;96.80
5278;DHT22;2662;51.194;6.614;2023-07-13T12:11:06;27.00;96.70
5278;DHT22;2662;51.194;6.614;2023-07-13T12:13:37;27.00;97.80
5278;DHT22;2662;51.194;6.614;2023-07-13T12:16:12;27.20;93.80
5278;DHT22;2662;51.194;6.614;2023-07-13T12:18:43;27.30;94.90
5278;DHT22;2662;51.194;6.614;2023-07-13T12:21:16;27.40;94.90
5278;DHT22;2662;51.194;6.614;2023-07-13T12:23:44;27.50;95.60
5278;DHT22;2662;51.194;6.614;2023-07-13T12:26:15;27.30;95.90
5278;DHT22;2662;51.194;6.614;2023-07-13T12:28:46;27.40;96.30
5278;DHT22;2662;51.194;6.614;2023-07-13T12:31:34;27.50;95.80
5278;DHT22;2662;51.194;6.614;2023-07-13T12:34:03;27.40;94.90
5278;DHT22;2662;51.194;6.614;2023-07-13T12:36:37;27.10;95.50
5278;DHT22;2662;51.194;6.614;2023-07-13T12:39:14;26.80;95.00
5278;DHT22;2662;51.194;6.614;2023-07-13T12:41:42;26.70;96.10
5278;DHT22;2662;51.194;6.614;2023-07-13T12:44:12;26.80;96.20
5278;DHT22;2662;51.194;6.614;2023-07-13T12:46:41;26.80;96.00
5278;DHT22;2662;51.194;6.614;2023-07-13T12:49:17;27.00;96.00
5278;DHT22;2662;51.194;6.614;2023-07-13T12:51:50;27.40;96.20
5278;DHT22;2662;51.194;6.614;2023-07-13T12:54:18;27.50;95.30
5278;DHT22;2662;51.194;6.614;2023-07-13T12:56:45;27.30;94.90
5278;DHT22;2662;51.194;6.614;2023-07-13T12:59:20;27.40;94.80
5278;DHT22;2662;51.194;6.614;2023-07-13T13:01:48;27.50;95.60
5278;DHT22;2662;51.194;6.614;2023-07-13T13:04:16;27.70;95.10
5278;DHT22;2662;51.194;6.614;2023-07-13T13:06:48;27.60;95.00
5278;DHT22;2662;51.194;6.614;2023-07-13T13:09:17;27.50;94.70
5278;DHT22;2662;51.194;6.614;2023-07-13T13:11:43;27.20;93.70
5278;DHT22;2662;51.194;6.614;2023-07-13T13:14:10;27.10;94.40
5278;DHT22;2662;51.194;6.614;2023-07-13T13:16:45;27.20;94.50
5278;DHT22;2662;51.194;6.614;2023-07-13T13:19:15;27.30;94.60
5278;DHT22;2662;51.194;6.614;2023-07-13T13:21:43;27.20;95.30
5278;DHT22;2662;51.194;6.614;2023-07-13T13:24:14;27.40;95.50
5278;DHT22;2662;51.194;6.614;2023-07-13T13:26:42;27.40;95.20
5278;DHT22;2662;51.194;6.614;2023-07-13T13:29:12;27.30;94.60
5278;DHT22;2662;51.194;6.614;2023-07-13T13:31:40;27.10;94.70
5278;DHT22;2662;51.194;6.614;2023-07-13T13:34:08;27.30;94.90
5278;DHT22;2662;51.194;6.614;2023-07-13T13:36:36;27.30;93.80
5278;DHT22;2662;51.194;6.614;2023-07-13T13:39:05;27.30;94.20
5278;DHT22;2662;51.194;6.614;2023-07-13T13:41:33;27.20;94.00
5278;DHT22;2662;51.194;6.614;2023-07-13T13:44:00;27.10;93.80
5278;DHT22;2662;51.194;6.614;2023-07-13T13:46:26;27.20;94.50
5278;DHT22;2662;51.194;6.614;2023-07-13T13:48:55;27.50;94.20
5278;DHT22;2662;51.194;6.614;2023-07-13T13:51:23;27.70;94.60
5278;DHT22;2662;51.194;6.614;2023-07-13T13:53:50;27.80;94.00
5278;DHT22;2662;51.194;6.614;2023-07-13T13:56:19;27.70;94.50
5278;DHT22;2662;51.194;6.614;2023-07-13T13:58:48;27.80;94.40
5278;DHT22;2662;51.194;6.614;2023-07-13T14:01:18;27.70;94.20
5278;DHT22;2662;51.194;6.614;2023-07-13T14:03:45;27.50;94.60
5278;DHT22;2662;51.194;6.614;2023-07-13T14:06:14;27.50;94.50
5278;DHT22;2662;51.194;6.614;2023-07-13T14:08:42;27.50;94.40
5278;DHT22;2662;51.194;6.614;2023-07-13T14:11:12;27.50;94.50
5278;DHT22;2662;51.194;6.614;2023-07-13T14:13:42;27.40;94.40
5278;DHT22;2662;51.194;6.614;2023-07-13T14:16:12;27.40;93.90
5278;DHT22;2662;51.194;6.614;2023-07-13T14:18:43;27.50;93.70
5278;DHT22;2662;51.194;6.614;2023-07-13T14:21:12;27.60;93.80
5278;DHT22;2662;51.194;6.614;2023-07-13T14:23:40;27.50;94.20
5278;DHT22;2662;51.194;6.614;2023-07-13T14:26:10;27.40;94.00
5278;DHT22;2662;51.194;6.614;2023-07-13T14:28:41;27.20;93.70
5278;DHT22;2662;51.194;6.614;2023-07-13T14:31:10;26.80;94.00
5278;DHT22;2662;51.194;6.614;2023-07-13T14:33:37;26.50;94.50
5278;DHT22;2662;51.194;6.614;2023-07-13T14:36:15;26.20;95.10
5278;DHT22;2662;51.194;6.614;2023-07-13T14:38:43;25.70;99.90
5278;DHT22;2662;51.194;6.614;2023-07-13T14:41:10;24.90;99.90
5278;DHT22;2662;51.194;6.614;2023-07-13T14:43:36;24.30;99.90
5278;DHT22;2662;51.194;6.614;2023-07-13T14:46:03;23.70;99.90
5278;DHT22;2662;51.194;6.614;2023-07-13T14:48:31;23.40;99.90
5278;DHT22;2662;51.194;6.614;2023-07-13T14:50:58;23.10;99.90
5278;DHT22;2662;51.194;6.614;2023-07-13T14:53:26;23.00;99.90
5278;DHT22;2662;51.194;6.614;2023-07-13T14:55:54;22.70;99.90
5278;DHT22;2662;51.194;6.614;2023-07-13T14:58:21;22.60;99.90
5278;DHT22;2662;51.194;6.614;2023-07-13T15:00:48;22.50;99.90
5278;DHT22;2662;51.194;6.614;2023-07-13T15:03:18;22.50;99.90
5278;DHT22;2662;51.194;6.614;2023-07-13T15:05:48;22.50;99.90
5278;DHT22;2662;51.194;6.614;2023-07-13T15:08:15;22.50;99.90
5278;DHT22;2662;51.194;6.614;2023-07-13T15:10:42;22.70;99.90
5278;DHT22;2662;51.194;6.614;2023-07-13T15:13:14;22.70;99.90
5278;DHT22;2662;51.194;6.614;2023-07-13T15:15:44;22.80;99.90
5278;DHT22;2662;51.194;6.614;2023-07-13T15:18:12;22.90;99.90
5278;DHT22;2662;51.194;6.614;2023-07-13T15:20:40;22.60;99.90
5278;DHT22;2662;51.194;6.614;2023-07-13T15:23:10;22.40;99.90
5278;DHT22;2662;51.194;6.614;2023-07-13T15:25:37;22.40;99.90
5278;DHT22;2662;51.194;6.614;2023-07-13T15:28:04;22.50;99.90
5278;DHT22;2662;51.194;6.614;2023-07-13T15:30:41;22.40;99.90
5278;DHT22;2662;51.194;6.614;2023-07-13T15:33:13;22.30;99.90
5278;DHT22;2662;51.194;6.614;2023-07-13T15:35:43;22.30;99.90
5278;DHT22;2662;51.194;6.614;2023-07-13T15:38:16;22.30;99.90
5278;DHT22;2662;51.194;6.614;2023-07-13T15:40:43;22.30;99.90
5278;DHT22;2662;51.194;6.614;2023-07-13T15:43:11;22.30;99.90
5278;DHT22;2662;51.194;6.614;2023-07-13T15:45:39;22.20;99.90
5278;DHT22;2662;51.194;6.614;2023-07-13T15:48:13;22.30;99.90
5278;DHT22;2662;51.194;6.614;2023-07-13T15:50:44;22.20;99.90
5278;DHT22;2662;51.194;6.614;2023-07-13T15:53:11;22.20;99.90
5278;DHT22;2662;51.194;6.614;2023-07-13T15:55:39;22.20;99.90
5278;DHT22;2662;51.194;6.614;2023-07-13T15:58:10;22.30;99.90
5278;DHT22;2662;51.194;6.614;2023-07-13T16:00:37;22.40;99.90
5278;DHT22;2662;51.194;6.614;2023-07-13T16:03:05;22.40;99.90
5278;DHT22;2662;51.194;6.614;2023-07-13T16:05:31;22.50;99.90
5278;DHT22;2662;51.194;6.614;2023-07-13T16:07:58;22.60;99.90
5278;DHT22;2662;51.194;6.614;2023-07-13T16:10:31;22.70;99.90
5278;DHT22;2662;51.194;6.614;2023-07-13T16:13:01;22.70;99.90